createdAt,value
2023-05-08T00:01:17.165Z,78.51
2023-05-08T00:03:44.000Z,78.49
2023-05-08T00:06:10.518Z,78.57
2023-05-08T00:08:37.677Z,79.42
2023-05-08T00:11:06.238Z,79.75
2023-05-08T00:13:32.604Z,80.14
2023-05-08T00:15:59.180Z,80.08
2023-05-08T00:18:25.599Z,80.92
2023-05-08T00:20:55.046Z,79.99
2023-05-08T00:23:21.442Z,79.53
2023-05-08T00:25:47.827Z,80.54
2023-05-08T00:28:14.624Z,79.47
2023-05-08T00:30:43.034Z,79.21
2023-05-08T00:33:09.835Z,79.53
2023-05-08T00:35:36.352Z,80.18
2023-05-08T00:38:02.761Z,80.01
2023-05-08T00:40:29.274Z,80.56
2023-05-08T00:42:55.999Z,80.95
2023-05-08T00:45:22.478Z,80.29
2023-05-08T00:47:56.862Z,80.86
2023-05-08T00:50:23.222Z,81.62
2023-05-08T00:52:49.684Z,81.43
2023-05-08T00:55:16.166Z,81.19
2023-05-08T00:57:42.525Z,80.87
2023-05-08T01:00:08.889Z,80.48
2023-05-08T01:02:35.414Z,80.90
2023-05-08T01:05:01.888Z,80.60
2023-05-08T01:07:28.746Z,80.99
2023-05-08T01:09:55.099Z,80.87
2023-05-08T01:12:21.767Z,81.09
2023-05-08T01:14:48.157Z,80.86
2023-05-08T01:17:14.533Z,81.09
2023-05-08T01:19:42.217Z,81.29
2023-05-08T01:22:08.553Z,81.67
2023-05-08T01:24:34.918Z,81.13
2023-05-08T01:27:01.381Z,81.12
2023-05-08T01:29:27.839Z,81.28
2023-05-08T01:31:54.313Z,81.84
2023-05-08T01:34:20.721Z,81.63
2023-05-08T01:36:47.172Z,81.75
2023-05-08T01:39:13.601Z,81.64
2023-05-08T01:41:40.766Z,82.20
2023-05-08T01:44:07.333Z,82.24
2023-05-08T01:46:35.822Z,81.76
2023-05-08T01:49:02.228Z,81.75
2023-05-08T01:51:28.611Z,81.94
2023-05-08T01:53:55.073Z,81.60
2023-05-08T01:56:21.649Z,81.49
2023-05-08T01:58:49.034Z,82.08
2023-05-08T02:01:15.475Z,82.33
2023-05-08T02:03:42.136Z,82.61
2023-05-08T02:06:08.591Z,82.47
2023-05-08T02:08:34.951Z,82.69
2023-05-08T02:11:01.651Z,81.79
2023-05-08T02:13:28.049Z,81.62
2023-05-08T02:15:54.470Z,81.55
2023-05-08T02:18:21.067Z,81.36
2023-05-08T02:20:47.403Z,80.95
2023-05-08T02:23:13.800Z,80.49
2023-05-08T02:25:40.279Z,79.96
2023-05-08T02:28:06.883Z,79.33
2023-05-08T02:30:33.314Z,79.55
2023-05-08T02:33:00.748Z,79.15
2023-05-08T02:35:27.311Z,79.48
2023-05-08T02:37:53.756Z,79.53
2023-05-08T02:40:20.127Z,79.47
2023-05-08T02:42:46.498Z,79.48
2023-05-08T02:45:12.923Z,79.43
2023-05-08T02:47:39.331Z,79.43
2023-05-08T02:50:05.977Z,79.28
2023-05-08T02:52:33.756Z,79.02
2023-05-08T02:55:00.226Z,79.40
2023-05-08T02:57:26.604Z,79.09
2023-05-08T02:59:52.949Z,79.40
2023-05-08T03:02:19.469Z,79.72
2023-05-08T03:04:46.164Z,80.59
2023-05-08T03:07:12.561Z,80.93
2023-05-08T03:09:38.919Z,80.27
2023-05-08T03:12:05.499Z,80.70
2023-05-08T03:14:32.977Z,80.28
2023-05-08T03:16:59.514Z,80.69
2023-05-08T03:19:26.204Z,81.28
2023-05-08T03:21:52.909Z,81.25
2023-05-08T03:24:19.294Z,82.31
2023-05-08T03:26:45.634Z,82.37
2023-05-08T03:29:12.012Z,81.79
2023-05-08T03:31:38.659Z,82.08
2023-05-08T03:34:05.056Z,82.05
2023-05-08T03:36:31.560Z,82.08
2023-05-08T03:38:59.342Z,82.06
2023-05-08T03:41:25.698Z,81.22
2023-05-08T03:43:52.299Z,81.16
2023-05-08T03:46:18.775Z,81.50
2023-05-08T03:48:45.107Z,81.21
2023-05-08T03:51:12.645Z,81.13
2023-05-08T03:53:39.221Z,80.33
2023-05-08T03:56:07.965Z,80.28
2023-05-08T03:58:34.399Z,80.33
2023-05-08T04:01:01.048Z,80.31
2023-05-08T04:03:27.500Z,81.10
2023-05-08T04:05:54.709Z,80.21
2023-05-08T04:08:22.702Z,80.56
2023-05-08T04:10:49.042Z,80.21
2023-05-08T04:13:15.472Z,80.39
2023-05-08T04:15:41.894Z,80.95
2023-05-08T04:18:08.779Z,81.04
2023-05-08T04:20:35.221Z,81.34
2023-05-08T04:23:01.644Z,81.56
2023-05-08T04:25:28.374Z,81.72
2023-05-08T04:28:01.840Z,82.48
2023-05-08T04:30:28.198Z,81.66
2023-05-08T04:32:54.604Z,82.34
2023-05-08T04:35:21.174Z,82.40
2023-05-08T04:37:47.550Z,81.96
2023-05-08T04:40:21.390Z,82.56
2023-05-08T04:42:48.105Z,81.71
2023-05-08T04:45:17.076Z,82.29
2023-05-08T04:47:43.527Z,81.43
2023-05-08T04:50:11.087Z,81.03
2023-05-08T04:52:37.958Z,80.80
2023-05-08T04:55:04.463Z,81.37
2023-05-08T04:57:38.139Z,80.83
2023-05-08T05:00:04.685Z,81.02
2023-05-08T05:02:31.420Z,81.37
2023-05-08T05:04:57.812Z,81.32
2023-05-08T05:07:24.307Z,81.61
2023-05-08T05:09:50.735Z,81.07
2023-05-08T05:12:17.560Z,81.19
2023-05-08T05:14:45.381Z,80.91
2023-05-08T05:17:19.219Z,81.41
2023-05-08T05:19:45.573Z,81.29
2023-05-08T05:22:11.951Z,81.45
2023-05-08T05:24:38.843Z,80.96
2023-05-08T05:27:05.257Z,81.14
2023-05-08T05:29:31.971Z,80.92
2023-05-08T05:31:58.679Z,80.88
2023-05-08T05:34:26.342Z,81.28
2023-05-08T05:36:52.745Z,81.46
2023-05-08T05:39:19.498Z,81.13
2023-05-08T05:41:47.127Z,81.49
2023-05-08T05:44:14.565Z,80.71
2023-05-08T05:46:44.628Z,80.50
2023-05-08T05:49:11.349Z,80.26
2023-05-08T05:51:37.720Z,80.60
2023-05-08T05:54:04.101Z,80.06
2023-05-08T05:56:35.349Z,80.45
2023-05-08T05:59:03.758Z,80.28
2023-05-08T06:01:32.545Z,80.03
2023-05-08T06:04:01.357Z,80.25
2023-05-08T06:06:27.849Z,80.18
2023-05-08T06:08:56.273Z,80.12
2023-05-08T06:11:22.757Z,79.42
2023-05-08T06:13:50.669Z,80.08
2023-05-08T06:16:17.638Z,80.11
2023-05-08T06:18:44.097Z,81.05
2023-05-08T06:21:10.702Z,80.86
2023-05-08T06:23:37.425Z,81.04
2023-05-08T06:26:04.062Z,80.50
2023-05-08T06:28:30.395Z,81.29
2023-05-08T06:30:56.808Z,80.80
2023-05-08T06:33:28.731Z,79.72
2023-05-08T06:35:57.585Z,79.96
2023-05-08T06:38:24.037Z,79.61
2023-05-08T06:40:50.517Z,80.11
2023-05-08T06:43:17.393Z,80.28
2023-05-08T06:45:43.962Z,79.40
2023-05-08T06:48:10.862Z,80.32
2023-05-08T06:50:41.420Z,80.39
2023-05-08T06:53:10.479Z,79.56
2023-05-08T06:55:36.845Z,79.27
2023-05-08T06:58:03.471Z,80.22
2023-05-08T07:00:30.892Z,79.51
2023-05-08T07:02:58.145Z,79.92
2023-05-08T07:05:26.250Z,79.98
2023-05-08T07:07:59.877Z,79.20
2023-05-08T07:10:27.281Z,79.35
2023-05-08T07:12:54.737Z,78.61
2023-05-08T07:15:26.411Z,79.25
2023-05-08T07:17:53.691Z,78.16
2023-05-08T07:20:20.072Z,77.98
2023-05-08T07:22:46.496Z,77.79
2023-05-08T07:25:13.119Z,76.61
2023-05-08T07:27:39.929Z,76.75
2023-05-08T07:30:06.309Z,76.16
2023-05-08T07:32:33.055Z,74.93
2023-05-08T07:34:59.438Z,75.14
2023-05-08T07:37:26.816Z,75.31
2023-05-08T07:39:53.407Z,74.14
2023-05-08T07:42:20.100Z,73.48
2023-05-08T07:44:54.263Z,72.27
2023-05-08T07:47:21.558Z,72.78
2023-05-08T07:49:47.930Z,72.96
2023-05-08T07:52:14.492Z,72.25
2023-05-08T07:54:40.898Z,72.45
2023-05-08T07:57:07.584Z,71.15
2023-05-08T07:59:35.270Z,72.71
2023-05-08T08:02:02.710Z,72.53
2023-05-08T08:04:29.195Z,71.43
2023-05-08T08:06:55.940Z,71.56
2023-05-08T08:09:22.759Z,70.99
2023-05-08T08:11:50.157Z,69.49
2023-05-08T08:14:21.245Z,68.43
2023-05-08T08:16:48.702Z,69.29
2023-05-08T08:19:15.171Z,68.09
2023-05-08T08:21:42.066Z,67.26
2023-05-08T08:24:10.771Z,68.93
2023-05-08T08:26:37.560Z,69.53
2023-05-08T08:29:06.187Z,69.03
2023-05-08T08:31:32.907Z,68.84
2023-05-08T08:33:59.423Z,68.18
2023-05-08T08:36:25.776Z,65.22
2023-05-08T08:38:52.674Z,67.30
2023-05-08T08:41:19.127Z,65.32
2023-05-08T08:43:45.550Z,64.24
2023-05-08T08:46:12.094Z,64.45
2023-05-08T08:48:38.489Z,67.29
2023-05-08T08:51:04.867Z,65.68
2023-05-08T08:53:31.235Z,65.69
2023-05-08T08:55:57.920Z,65.03
2023-05-08T08:58:24.434Z,64.04
2023-05-08T09:00:53.128Z,67.93
2023-05-08T09:03:19.932Z,68.42
2023-05-08T09:05:49.934Z,68.07
2023-05-08T09:08:18.469Z,68.37
2023-05-08T09:10:46.103Z,66.00
2023-05-08T09:13:12.497Z,69.81
2023-05-08T09:15:40.126Z,66.00
2023-05-08T09:18:06.740Z,60.92
2023-05-08T09:20:33.354Z,61.79
2023-05-08T09:23:07.211Z,61.13
2023-05-08T09:25:35.670Z,63.27
2023-05-08T09:28:02.160Z,60.75
2023-05-08T09:30:28.555Z,60.61
2023-05-08T09:32:55.866Z,59.48
2023-05-08T09:35:22.267Z,61.24
2023-05-08T09:37:51.001Z,62.26
2023-05-08T09:40:17.613Z,63.07
2023-05-08T09:42:43.966Z,60.73
2023-05-08T09:45:10.458Z,62.97
2023-05-08T09:47:39.899Z,64.94
2023-05-08T09:50:06.305Z,66.43
2023-05-08T09:52:32.694Z,62.96
2023-05-08T09:54:59.038Z,63.20
2023-05-08T09:57:25.446Z,67.26
2023-05-08T09:59:52.858Z,66.42
2023-05-08T10:02:19.336Z,62.95
2023-05-08T10:04:45.779Z,64.79
2023-05-08T10:07:12.166Z,65.42
2023-05-08T10:09:50.440Z,67.55
2023-05-08T10:12:17.373Z,67.26
2023-05-08T10:14:46.550Z,67.96
2023-05-08T10:17:13.329Z,67.36
2023-05-08T10:19:42.183Z,65.98
2023-05-08T10:22:09.594Z,64.56
2023-05-08T10:24:35.999Z,66.30
2023-05-08T10:27:07.490Z,64.97
2023-05-08T10:29:34.337Z,65.55
2023-05-08T10:32:03.113Z,62.25
2023-05-08T10:34:32.040Z,64.44
2023-05-08T10:36:58.384Z,58.88
2023-05-08T10:39:24.771Z,61.42
2023-05-08T10:41:51.190Z,62.10
2023-05-08T10:44:18.639Z,63.78
2023-05-08T10:46:45.578Z,65.95
2023-05-08T10:49:12.018Z,67.05
2023-05-08T10:51:40.474Z,65.52
2023-05-08T10:54:07.867Z,63.38
2023-05-08T10:56:34.574Z,66.30
2023-05-08T10:59:01.018Z,67.18
2023-05-08T11:01:30.403Z,69.87
2023-05-08T11:03:59.486Z,69.63
2023-05-08T11:06:28.315Z,70.38
2023-05-08T11:08:54.824Z,69.89
2023-05-08T11:11:21.273Z,69.86
2023-05-08T11:13:48.984Z,68.65
2023-05-08T11:16:15.437Z,69.05
2023-05-08T11:18:48.915Z,68.76
2023-05-08T11:21:18.189Z,68.80
2023-05-08T11:23:46.092Z,67.91
2023-05-08T11:26:12.621Z,65.81
2023-05-08T11:28:39.873Z,67.15
2023-05-08T11:31:06.477Z,65.90
2023-05-08T11:33:33.075Z,65.86
2023-05-08T11:35:59.441Z,66.71
2023-05-08T11:38:26.137Z,65.67
2023-05-08T11:40:52.520Z,64.46
2023-05-08T11:43:19.257Z,62.97
2023-05-08T11:45:46.088Z,62.71
2023-05-08T11:48:12.566Z,61.63
2023-05-08T11:50:39.021Z,60.65
2023-05-08T11:53:12.791Z,59.88
2023-05-08T11:55:40.770Z,59.33
2023-05-08T11:58:07.159Z,59.62
2023-05-08T12:00:33.562Z,60.60
2023-05-08T12:05:40.228Z,63.30
2023-05-08T12:08:06.560Z,61.31
2023-05-08T12:10:33.029Z,57.47
2023-05-08T12:12:59.597Z,58.87
2023-05-08T12:15:27.218Z,55.97
2023-05-08T12:17:53.605Z,56.28
2023-05-08T12:20:20.201Z,55.58
2023-05-08T12:22:46.707Z,53.72
2023-05-08T12:25:13.303Z,54.73
2023-05-08T12:27:40.119Z,55.29
2023-05-08T12:30:06.472Z,53.98
2023-05-08T12:32:32.951Z,55.30
2023-05-08T12:34:59.395Z,54.99
2023-05-08T12:37:26.015Z,58.97
2023-05-08T12:39:52.408Z,58.19
2023-05-08T12:42:18.919Z,61.27
2023-05-08T12:44:45.972Z,64.46
2023-05-08T12:47:14.549Z,65.04
2023-05-08T12:49:40.964Z,64.48
2023-05-08T12:52:07.589Z,65.22
2023-05-08T12:54:36.354Z,66.16
2023-05-08T12:57:02.740Z,69.13
2023-05-08T12:59:31.920Z,69.58
2023-05-08T13:01:58.732Z,69.87
2023-05-08T13:04:25.498Z,69.56
2023-05-08T13:06:53.353Z,68.56
2023-05-08T13:09:21.652Z,67.77
2023-05-08T13:11:48.003Z,65.76
2023-05-08T13:14:15.631Z,66.94
2023-05-08T13:16:42.217Z,69.02
2023-05-08T13:19:08.684Z,69.49
2023-05-08T13:21:35.073Z,64.55
2023-05-08T13:24:01.725Z,65.53
2023-05-08T13:26:28.355Z,64.68
2023-05-08T13:28:56.589Z,64.42
2023-05-08T13:31:23.478Z,65.63
2023-05-08T13:33:51.736Z,64.57
2023-05-08T13:36:19.510Z,66.70
2023-05-08T13:38:46.145Z,63.44
2023-05-08T13:41:12.671Z,64.77
2023-05-08T13:43:39.048Z,64.53
2023-05-08T13:46:08.796Z,64.16
2023-05-08T13:48:35.220Z,63.73
2023-05-08T13:51:01.823Z,63.02
2023-05-08T13:53:30.772Z,62.40
2023-05-08T13:55:57.464Z,64.95
2023-05-08T13:58:24.201Z,67.53
2023-05-08T14:00:51.706Z,67.42
2023-05-08T14:03:23.046Z,68.28
2023-05-08T14:05:50.922Z,68.64
2023-05-08T14:08:17.270Z,66.42
2023-05-08T14:10:44.639Z,66.52
2023-05-08T14:13:12.323Z,66.91
2023-05-08T14:15:39.159Z,67.00
2023-05-08T14:18:10.298Z,65.30
2023-05-08T14:20:39.865Z,66.08
2023-05-08T14:23:06.764Z,65.13
2023-05-08T14:25:34.227Z,63.68
2023-05-08T14:28:00.581Z,61.51
2023-05-08T14:30:28.338Z,62.70
2023-05-08T14:32:55.097Z,62.96
2023-05-08T14:35:22.599Z,63.21
2023-05-08T14:37:48.987Z,61.48
2023-05-08T14:40:24.682Z,61.36
2023-05-08T14:42:54.958Z,60.03
2023-05-08T14:45:21.399Z,59.82
2023-05-08T14:47:47.957Z,60.00
2023-05-08T14:50:18.454Z,60.34
2023-05-08T14:52:44.865Z,59.39
2023-05-08T14:55:12.371Z,57.96
2023-05-08T14:57:38.925Z,58.15
2023-05-08T15:00:05.276Z,58.46
2023-05-08T15:02:31.949Z,58.19
2023-05-08T15:04:58.654Z,58.11
2023-05-08T15:07:25.008Z,57.06
2023-05-08T15:09:53.045Z,56.90
2023-05-08T15:12:19.405Z,56.53
2023-05-08T15:14:45.778Z,56.57
2023-05-08T15:17:12.157Z,57.21
2023-05-08T15:19:41.246Z,56.47
2023-05-08T15:22:10.956Z,56.67
2023-05-08T15:24:37.724Z,56.28
2023-05-08T15:27:04.307Z,56.26
2023-05-08T15:29:30.682Z,56.35
2023-05-08T15:31:57.102Z,56.27
2023-05-08T15:34:26.375Z,55.08
2023-05-08T15:36:56.622Z,55.96
2023-05-08T15:39:24.949Z,55.70
2023-05-08T15:41:51.282Z,54.89
2023-05-08T15:44:17.917Z,54.40
2023-05-08T15:46:44.268Z,53.64
2023-05-08T15:49:10.601Z,53.28
2023-05-08T15:51:36.929Z,52.56
2023-05-08T15:54:03.526Z,52.99
2023-05-08T15:56:29.974Z,51.66
2023-05-08T15:58:56.972Z,54.20
2023-05-08T16:01:23.572Z,54.04
2023-05-08T16:03:51.122Z,53.27
2023-05-08T16:06:17.532Z,53.17
2023-05-08T16:08:44.033Z,52.96
2023-05-08T16:11:10.388Z,54.05
2023-05-08T16:13:36.946Z,53.75
2023-05-08T16:16:03.301Z,52.61
2023-05-08T16:18:29.989Z,52.15
2023-05-08T16:20:56.320Z,54.06
2023-05-08T16:23:22.969Z,55.82
2023-05-08T16:25:49.348Z,54.07
2023-05-08T16:28:16.102Z,54.80
2023-05-08T16:30:46.236Z,55.38
2023-05-08T16:33:19.770Z,56.56
2023-05-08T16:35:48.376Z,56.92
2023-05-08T16:38:14.793Z,58.28
2023-05-08T16:40:41.185Z,58.22
2023-05-08T16:43:10.337Z,58.74
2023-05-08T16:45:37.799Z,58.44
2023-05-08T16:48:04.270Z,57.47
2023-05-08T16:50:31.047Z,57.50
2023-05-08T16:52:59.944Z,57.69
2023-05-08T16:55:26.278Z,56.78
2023-05-08T16:57:54.668Z,56.41
2023-05-08T17:00:21.750Z,56.38
2023-05-08T17:02:50.575Z,56.61
2023-05-08T17:05:19.435Z,57.50
2023-05-08T17:07:46.116Z,56.51
2023-05-08T17:10:12.958Z,57.47
2023-05-08T17:12:40.601Z,57.13
2023-05-08T17:15:07.036Z,58.28
2023-05-08T17:17:34.436Z,57.16
2023-05-08T17:20:00.794Z,58.24
2023-05-08T17:22:27.975Z,57.65
2023-05-08T17:24:54.546Z,57.72
2023-05-08T17:27:20.926Z,58.71
2023-05-08T17:29:47.393Z,59.04
2023-05-08T17:32:16.033Z,59.51
2023-05-08T17:34:50.230Z,59.18
2023-05-08T17:37:17.630Z,59.85
2023-05-08T17:39:43.986Z,60.94
2023-05-08T17:42:10.665Z,62.99
2023-05-08T17:44:37.018Z,63.20
2023-05-08T17:47:04.412Z,62.88
2023-05-08T17:49:38.659Z,63.21
2023-05-08T17:52:05.155Z,62.47
2023-05-08T17:54:31.726Z,62.30
2023-05-08T17:57:00.838Z,63.06
2023-05-08T17:59:27.204Z,63.57
2023-05-08T18:01:53.742Z,64.45
2023-05-08T18:04:20.163Z,65.49
2023-05-08T18:06:46.586Z,67.38
2023-05-08T18:09:13.010Z,67.88
2023-05-08T18:11:39.492Z,68.58
2023-05-08T18:14:06.131Z,69.81
2023-05-08T18:16:34.165Z,68.26
2023-05-08T18:19:00.595Z,67.98
2023-05-08T18:21:26.944Z,68.56
2023-05-08T18:23:53.310Z,68.10
2023-05-08T18:26:19.905Z,69.19
2023-05-08T18:28:47.284Z,69.34
2023-05-08T18:31:14.014Z,69.16
2023-05-08T18:33:40.637Z,68.48
2023-05-08T18:36:08.061Z,67.58
2023-05-08T18:38:34.746Z,67.13
2023-05-08T18:41:01.842Z,68.60
2023-05-08T18:43:28.200Z,68.93
2023-05-08T18:45:54.650Z,69.28
2023-05-08T18:48:21.062Z,70.11
2023-05-08T18:50:47.645Z,70.33
2023-05-08T18:53:14.004Z,69.81
2023-05-08T18:55:40.377Z,71.04
2023-05-08T18:58:06.717Z,71.49
2023-05-08T19:00:33.121Z,71.70
2023-05-08T19:03:00.128Z,72.41
2023-05-08T19:05:26.777Z,71.34
2023-05-08T19:07:55.221Z,71.08
2023-05-08T19:10:21.721Z,70.97
2023-05-08T19:12:48.162Z,71.37
2023-05-08T19:15:15.844Z,72.10
2023-05-08T19:17:42.489Z,72.24
2023-05-08T19:20:08.936Z,71.94
2023-05-08T19:22:36.001Z,72.36
2023-05-08T19:25:02.666Z,72.75
2023-05-08T19:27:29.095Z,73.21
2023-05-08T19:29:55.494Z,73.92
2023-05-08T19:32:21.885Z,73.30
2023-05-08T19:34:48.248Z,73.81
2023-05-08T19:37:14.723Z,73.40
2023-05-08T19:39:42.142Z,74.15
2023-05-08T19:42:09.775Z,74.75
2023-05-08T19:44:36.135Z,74.33
2023-05-08T19:47:04.635Z,73.95
2023-05-08T19:49:30.997Z,74.18
2023-05-08T19:51:59.432Z,74.17
2023-05-08T19:54:26.829Z,74.23
2023-05-08T19:56:53.287Z,73.79
2023-05-08T19:59:22.146Z,73.95
2023-05-08T20:01:48.593Z,73.55
2023-05-08T20:04:14.989Z,72.96
2023-05-08T20:06:41.348Z,73.63
2023-05-08T20:09:07.745Z,74.50
2023-05-08T20:11:34.226Z,73.98
2023-05-08T20:14:00.604Z,73.81
2023-05-08T20:16:27.335Z,73.50
2023-05-08T20:18:53.986Z,73.62
2023-05-08T20:21:22.734Z,74.05
2023-05-08T20:23:49.088Z,74.79
2023-05-08T20:26:15.471Z,75.00
2023-05-08T20:28:41.857Z,74.98
2023-05-08T20:31:08.327Z,74.88
2023-05-08T20:33:34.703Z,74.94
2023-05-08T20:36:01.086Z,75.00
2023-05-08T20:38:27.441Z,74.97
2023-05-08T20:40:56.968Z,75.44
2023-05-08T20:43:28.575Z,75.64
2023-05-08T20:45:55.097Z,76.40
2023-05-08T20:48:21.504Z,75.66
2023-05-08T20:50:47.869Z,75.46
2023-05-08T20:53:14.410Z,75.33
2023-05-08T20:55:40.784Z,75.32
2023-05-08T20:58:07.350Z,75.38
2023-05-08T21:00:33.726Z,75.28
2023-05-08T21:03:00.236Z,74.80
2023-05-08T21:05:26.833Z,74.91
2023-05-08T21:07:53.468Z,74.63
2023-05-08T21:10:20.030Z,74.81
2023-05-08T21:12:46.601Z,75.44
2023-05-08T21:15:13.274Z,76.03
2023-05-08T21:17:40.157Z,75.82
2023-05-08T21:20:07.119Z,76.46
2023-05-08T21:22:33.461Z,76.92
2023-05-08T21:25:00.099Z,77.08
2023-05-08T21:27:26.585Z,76.95
2023-05-08T21:29:53.981Z,76.81
2023-05-08T21:32:20.352Z,76.75
2023-05-08T21:34:46.698Z,76.78
2023-05-08T21:37:13.441Z,76.69
2023-05-08T21:39:39.916Z,77.01
2023-05-08T21:42:06.312Z,77.83
2023-05-08T21:44:32.667Z,77.77
2023-05-08T21:46:59.097Z,78.35
2023-05-08T21:49:25.701Z,78.44
2023-05-08T21:51:52.113Z,78.37
2023-05-08T21:54:18.505Z,77.53
2023-05-08T21:56:44.859Z,76.75
2023-05-08T21:59:11.210Z,77.98
2023-05-08T22:01:37.560Z,78.21
2023-05-08T22:04:04.084Z,78.01
2023-05-08T22:06:30.592Z,79.32
2023-05-08T22:08:56.939Z,78.34
2023-05-08T22:11:23.321Z,78.76
2023-05-08T22:13:51.738Z,78.60
2023-05-08T22:16:18.228Z,78.14
2023-05-08T22:18:44.608Z,78.42
2023-05-08T22:21:10.960Z,78.20
2023-05-08T22:23:37.387Z,77.53
2023-05-08T22:26:03.722Z,77.89
2023-05-08T22:28:32.115Z,77.69
2023-05-08T22:30:58.480Z,77.37
2023-05-08T22:33:24.865Z,78.03
2023-05-08T22:35:54.669Z,78.22
2023-05-08T22:38:21.066Z,78.27
2023-05-08T22:40:47.437Z,79.36
2023-05-08T22:43:14.180Z,78.12
2023-05-08T22:45:40.742Z,78.53
2023-05-08T22:48:07.229Z,77.99
2023-05-08T22:50:33.699Z,78.02
2023-05-08T22:53:00.173Z,78.99
2023-05-08T22:55:29.347Z,78.79
2023-05-08T22:57:55.745Z,79.77
2023-05-08T23:00:22.120Z,79.29
2023-05-08T23:02:48.573Z,79.79
2023-05-08T23:05:15.126Z,80.04
2023-05-08T23:07:41.753Z,79.59
2023-05-08T23:10:09.164Z,78.90
2023-05-08T23:12:35.501Z,78.80
2023-05-08T23:15:01.865Z,78.52
2023-05-08T23:17:28.264Z,78.24
2023-05-08T23:19:54.836Z,78.79
2023-05-08T23:22:23.358Z,78.45
2023-05-08T23:24:49.703Z,78.05
2023-05-08T23:27:19.595Z,78.29
2023-05-08T23:29:48.730Z,78.42
2023-05-08T23:32:15.104Z,78.13
2023-05-08T23:34:41.707Z,78.97
2023-05-08T23:37:08.062Z,78.15
2023-05-08T23:39:34.391Z,78.39
2023-05-08T23:42:01.779Z,78.88
2023-05-08T23:44:28.144Z,78.66
2023-05-08T23:46:54.544Z,78.17
2023-05-08T23:49:20.906Z,79.05
2023-05-08T23:51:47.235Z,78.95
2023-05-08T23:54:13.576Z,79.26
2023-05-08T23:56:40.124Z,78.96
2023-05-08T23:59:06.734Z,78.65
